Time;durP1;ratioP1;P1;durP2;ratioP2;P2;SDS_P1;SDS_P2;PMS_P1;PMS_P2;Temp;Humidity;BMP_temperature;BMP_pressure;BME280_temperature;BME280_humidity;BME280_pressure;Samples;Min_cycle;Max_cycle;Signal;HPM_P1;HPM_P2
2022/06/29 00:02:17;;;;;;;5.80;5.20;;;;;;;;;;5090351;28;20536;-94
2022/06/29 00:04:45;;;;;;;6.07;5.57;;;;;;;;;;5091433;28;20972;-93
2022/06/29 00:12:53;;;;;;;5.93;5.33;;;;;;;;;;5058047;28;20939;-95
2022/06/29 00:15:25;;;;;;;8.77;5.20;;;;;;;;;;5090112;28;20459;-95
2022/06/29 00:17:58;;;;;;;5.93;5.43;;;;;;;;;;5079174;28;20449;-95
2022/06/29 00:20:30;;;;;;;6.00;5.10;;;;;;;;;;5071599;28;20481;-95
2022/06/29 00:22:59;;;;;;;6.13;5.60;;;;;;;;;;5073400;28;20466;-95
2022/06/29 00:25:30;;;;;;;7.13;6.43;;;;;;;;;;5079363;27;20499;-96
2022/06/29 00:28:13;;;;;;;8.20;5.60;;;;;;;;;;5073671;28;20866;-96
2022/06/29 00:30:51;;;;;;;6.07;5.47;;;;;;;;;;5072773;28;20987;-95
2022/06/29 00:33:20;;;;;;;6.03;5.50;;;;;;;;;;5073997;28;20452;-95
2022/06/29 00:35:56;;;;;;;6.87;6.17;;;;;;;;;;5088910;28;20473;-96
2022/06/29 00:38:33;;;;;;;5.90;5.40;;;;;;;;;;5078683;28;20980;-94
2022/06/29 00:43:46;;;;;;;5.60;5.10;;;;;;;;;;5095370;28;20445;-94
2022/06/29 00:46:32;;;;;;;;;;;;;;;;;;;;;
2022/06/29 00:49:02;;;;;;;6.87;5.87;;;;;;;;;;5093011;28;20520;-96
2022/06/29 00:51:32;;;;;;;8.47;6.50;;;;;;;;;;5082802;28;20462;-95
2022/06/29 00:54:08;;;;;;;13.63;7.20;;;;;;;;;;5082536;28;20461;-94
2022/06/29 00:56:47;;;;;;;7.10;6.07;;;;;;;;;;5081534;28;20453;-95
2022/06/29 01:02:32;;;;;;;6.80;5.73;;;;;;;;;;5079356;28;20462;-94
2022/06/29 01:05:01;;;;;;;8.07;5.77;;;;;;;;;;5079691;28;20465;-95
2022/06/29 01:07:30;;;;;;;7.00;6.10;;;;;;;;;;5079532;28;20515;-96
2022/06/29 01:10:00;;;;;;;5.87;5.10;;;;;;;;;;5079084;28;20455;-95
2022/06/29 01:12:32;;;;;;;6.00;5.40;;;;;;;;;;5078711;28;20458;-95
2022/06/29 01:15:33;;;;;;;6.23;5.63;;;;;;;;;;5075002;28;20448;-96
2022/06/29 01:18:20;;;;;;;6.87;6.03;;;;;;;;;;5077539;28;20441;-95
2022/06/29 01:20:50;;;;;;;7.30;5.40;;;;;;;;;;5074385;28;20520;-95
2022/06/29 01:26:12;;;;;;;5.93;5.43;;;;;;;;;;5076397;28;20441;-95
2022/06/29 01:28:46;;;;;;;6.30;5.70;;;;;;;;;;5076293;28;20457;-95
2022/06/29 01:31:15;;;;;;;6.60;6.00;;;;;;;;;;5077546;28;20448;-95
2022/06/29 01:33:45;;;;;;;6.60;5.93;;;;;;;;;;5078592;28;20945;-95
2022/06/29 01:36:14;;;;;;;6.17;5.57;;;;;;;;;;5077777;28;20440;-96
2022/06/29 01:38:48;;;;;;;6.60;5.90;;;;;;;;;;5077183;28;20484;-94
2022/06/29 01:41:16;;;;;;;6.43;5.83;;;;;;;;;;5079350;28;20450;-94
2022/06/29 01:43:44;;;;;;;6.77;6.03;;;;;;;;;;5081441;28;20453;-94
2022/06/29 01:46:15;;;;;;;6.47;5.87;;;;;;;;;;5082193;28;20456;-94
2022/06/29 01:48:45;;;;;;;6.63;5.67;;;;;;;;;;5019291;28;20532;-95
2022/06/29 01:51:14;;;;;;;5.93;5.43;;;;;;;;;;5018908;28;20444;-94
2022/06/29 01:53:41;;;;;;;6.93;5.80;;;;;;;;;;5021340;28;20459;-94
2022/06/29 01:56:18;;;;;;;6.80;5.67;;;;;;;;;;5023277;28;20440;-95
2022/06/29 01:58:48;;;;;;;7.10;6.10;;;;;;;;;;5035317;28;20532;-96
2022/06/29 02:01:20;;;;;;;12.20;8.27;;;;;;;;;;4932047;28;20490;-94
2022/06/29 02:03:51;;;;;;;7.60;6.60;;;;;;;;;;4960491;29;20451;-95
2022/06/29 02:06:21;;;;;;;5.90;5.40;;;;;;;;;;4964336;29;20467;-95
2022/06/29 02:08:49;;;;;;;6.23;5.63;;;;;;;;;;4968388;28;20447;-94
2022/06/29 02:11:19;;;;;;;7.43;6.50;;;;;;;;;;4966259;29;20522;-94
2022/06/29 02:13:51;;;;;;;7.13;6.30;;;;;;;;;;4997205;28;20480;-93
2022/06/29 02:16:21;;;;;;;5.90;5.40;;;;;;;;;;5002179;28;20486;-95
2022/06/29 02:18:56;;;;;;;7.00;6.23;;;;;;;;;;5019625;28;20445;-94
2022/06/29 02:21:23;;;;;;;6.20;5.70;;;;;;;;;;5080436;28;20968;-95
2022/06/29 02:23:51;;;;;;;6.50;5.90;;;;;;;;;;5078959;28;20434;-94
2022/06/29 02:26:21;;;;;;;6.23;5.63;;;;;;;;;;5079031;28;20453;-95
2022/06/29 02:28:49;;;;;;;5.97;5.43;;;;;;;;;;5078280;28;20429;-96
2022/06/29 02:36:46;;;;;;;6.17;5.57;;;;;;;;;;5078596;28;20416;-95
2022/06/29 02:39:17;;;;;;;6.33;5.70;;;;;;;;;;5077925;28;20478;-96
2022/06/29 02:41:46;;;;;;;6.20;5.60;;;;;;;;;;5060353;28;20484;-95
2022/06/29 02:44:17;;;;;;;6.70;5.80;;;;;;;;;;5077484;28;20457;-94
2022/06/29 02:46:45;;;;;;;6.40;5.90;;;;;;;;;;5077607;28;20442;-96
2022/06/29 02:49:14;;;;;;;7.30;6.60;;;;;;;;;;5077317;28;20511;-95
2022/06/29 02:51:43;;;;;;;7.00;6.30;;;;;;;;;;5078234;28;20457;-93
2022/06/29 02:54:14;;;;;;;6.57;5.50;;;;;;;;;;5077219;28;20538;-95
2022/06/29 02:56:42;;;;;;;7.70;6.67;;;;;;;;;;5077935;28;20469;-96
2022/06/29 02:59:13;;;;;;;6.27;5.67;;;;;;;;;;5078966;28;20528;-95
2022/06/29 03:01:42;;;;;;;6.20;5.70;;;;;;;;;;5078515;28;20457;-96
2022/06/29 03:04:09;;;;;;;6.10;5.40;;;;;;;;;;5079361;28;20943;-94
2022/06/29 03:06:38;;;;;;;7.20;6.00;;;;;;;;;;5079566;28;20541;-94
2022/06/29 03:09:08;;;;;;;9.67;5.77;;;;;;;;;;5079475;28;20444;-94
2022/06/29 03:11:36;;;;;;;5.90;5.40;;;;;;;;;;5081358;28;20455;-96
2022/06/29 03:14:06;;;;;;;6.90;6.20;;;;;;;;;;5077927;28;20458;-94
2022/06/29 03:16:37;;;;;;;5.63;5.13;;;;;;;;;;5076390;28;20456;-96
2022/06/29 03:19:06;;;;;;;6.20;5.60;;;;;;;;;;5079429;28;20528;-94
2022/06/29 03:21:34;;;;;;;6.40;5.90;;;;;;;;;;5079010;28;20481;-96
2022/06/29 03:24:03;;;;;;;5.80;5.30;;;;;;;;;;5080508;28;20454;-96
2022/06/29 03:26:33;;;;;;;7.53;6.03;;;;;;;;;;5080837;28;20462;-96
2022/06/29 03:29:03;;;;;;;11.67;7.50;;;;;;;;;;5081161;28;20445;-95
2022/06/29 03:31:30;;;;;;;7.40;5.90;;;;;;;;;;5083100;28;20959;-95
2022/06/29 03:34:00;;;;;;;7.03;6.37;;;;;;;;;;5081960;28;20469;-95
2022/06/29 03:36:29;;;;;;;6.00;5.50;;;;;;;;;;5083531;28;20975;-95
2022/06/29 03:38:57;;;;;;;9.33;6.77;;;;;;;;;;5082382;28;20481;-96
2022/06/29 03:41:27;;;;;;;6.80;6.10;;;;;;;;;;5082481;28;20882;-95
2022/06/29 03:43:54;;;;;;;6.00;5.50;;;;;;;;;;5081046;28;20514;-94
2022/06/29 03:46:22;;;;;;;8.20;5.97;;;;;;;;;;5079997;28;20449;-93
2022/06/29 03:48:52;;;;;;;6.00;5.53;;;;;;;;;;5079336;28;20488;-95
2022/06/29 03:51:21;;;;;;;6.07;5.30;;;;;;;;;;5079432;28;20529;-94
2022/06/29 03:53:49;;;;;;;6.10;5.60;;;;;;;;;;5079651;28;20465;-95
2022/06/29 03:56:16;;;;;;;6.73;5.93;;;;;;;;;;5078709;28;20446;-96
2022/06/29 03:58:47;;;;;;;6.80;6.20;;;;;;;;;;5077854;28;20434;-94
2022/06/29 04:01:14;;;;;;;6.30;5.70;;;;;;;;;;5078437;28;20679;-95
2022/06/29 04:03:42;;;;;;;7.43;6.60;;;;;;;;;;5077987;28;20541;-94
2022/06/29 04:06:19;;;;;;;6.30;5.80;;;;;;;;;;5077513;28;20484;-95
2022/06/29 04:08:50;;;;;;;6.90;6.20;;;;;;;;;;5078592;28;20443;-96
2022/06/29 04:14:04;;;;;;;7.17;6.57;;;;;;;;;;5077995;28;20923;-95
2022/06/29 04:16:31;;;;;;;7.40;6.70;;;;;;;;;;5078725;28;20442;-94
2022/06/29 04:19:01;;;;;;;8.07;6.93;;;;;;;;;;5077954;28;20445;-93
2022/06/29 04:21:29;;;;;;;8.30;6.50;;;;;;;;;;5079851;28;20988;-95
2022/06/29 04:23:59;;;;;;;6.30;5.70;;;;;;;;;;5085899;28;20496;-93
2022/06/29 04:26:26;;;;;;;7.40;6.17;;;;;;;;;;5097963;28;20493;-95
2022/06/29 04:28:54;;;;;;;8.17;6.93;;;;;;;;;;5093244;28;20484;-93
2022/06/29 04:31:21;;;;;;;7.27;6.57;;;;;;;;;;5080450;28;20884;-94
2022/06/29 04:33:50;;;;;;;6.07;5.47;;;;;;;;;;5080764;28;20861;-94
2022/06/29 04:36:18;;;;;;;7.17;5.80;;;;;;;;;;5080318;28;20445;-94
2022/06/29 04:38:46;;;;;;;6.87;6.27;;;;;;;;;;5076436;28;20568;-95
2022/06/29 04:41:15;;;;;;;8.47;6.87;;;;;;;;;;5080040;28;20488;-94
2022/06/29 04:43:45;;;;;;;6.60;5.70;;;;;;;;;;5080396;28;20456;-94
2022/06/29 04:46:22;;;;;;;6.40;5.80;;;;;;;;;;5080145;28;20538;-94
2022/06/29 04:48:51;;;;;;;7.10;6.40;;;;;;;;;;5079625;28;20521;-93
2022/06/29 04:51:20;;;;;;;5.40;5.00;;;;;;;;;;5080161;28;20545;-94
2022/06/29 04:53:48;;;;;;;8.90;6.70;;;;;;;;;;5079263;28;20507;-95
2022/06/29 04:56:18;;;;;;;8.10;6.03;;;;;;;;;;5079923;28;20456;-96
2022/06/29 04:58:45;;;;;;;8.33;6.80;;;;;;;;;;5080417;28;20445;-94
2022/06/29 05:01:13;;;;;;;7.10;6.40;;;;;;;;;;5079565;28;20579;-93
2022/06/29 05:03:40;;;;;;;7.17;6.47;;;;;;;;;;5079568;28;21011;-93
2022/06/29 05:06:07;;;;;;;7.23;6.53;;;;;;;;;;5080183;28;20462;-94
2022/06/29 05:08:35;;;;;;;7.47;6.80;;;;;;;;;;5079073;28;20540;-93
2022/06/29 05:11:02;;;;;;;8.47;7.03;;;;;;;;;;5080731;28;20480;-94
2022/06/29 05:13:32;;;;;;;7.10;6.50;;;;;;;;;;5080717;28;20486;-94
2022/06/29 05:15:59;;;;;;;11.67;6.73;;;;;;;;;;5081555;28;20537;-95
2022/06/29 05:18:28;;;;;;;8.10;7.33;;;;;;;;;;5081253;28;20477;-95
2022/06/29 05:23:37;;;;;;;4.93;4.40;;;;;;;;;;5266124;22;20571;-93
2022/06/29 05:26:04;;;;;;;3.70;3.40;;;;;;;;;;5056287;28;20557;-93
2022/06/29 05:28:33;;;;;;;4.63;4.20;;;;;;;;;;5057116;28;20487;-94
2022/06/29 05:31:00;;;;;;;5.93;5.43;;;;;;;;;;5058002;28;20454;-94
2022/06/29 05:33:36;;;;;;;7.23;5.10;;;;;;;;;;5054711;28;20439;-95
2022/06/29 05:36:03;;;;;;;8.20;5.10;;;;;;;;;;5059499;28;20823;-92
2022/06/29 05:38:30;;;;;;;8.80;6.40;;;;;;;;;;5057381;28;20476;-93
2022/06/29 05:40:57;;;;;;;9.00;5.90;;;;;;;;;;5056921;28;20486;-94
2022/06/29 05:43:24;;;;;;;8.67;5.77;;;;;;;;;;5054873;28;20460;-93
2022/06/29 05:45:53;;;;;;;7.77;5.43;;;;;;;;;;5053382;28;20434;-94
2022/06/29 05:48:20;;;;;;;6.03;5.53;;;;;;;;;;5055960;28;20435;-93
2022/06/29 05:50:47;;;;;;;5.93;5.40;;;;;;;;;;5057036;28;20446;-92
2022/06/29 05:53:16;;;;;;;5.80;5.30;;;;;;;;;;5055267;28;20451;-91
2022/06/29 05:55:44;;;;;;;6.07;5.33;;;;;;;;;;5056996;28;20451;-96
2022/06/29 05:58:15;;;;;;;6.23;5.00;;;;;;;;;;5058175;28;20549;-94
2022/06/29 06:00:43;;;;;;;5.83;5.33;;;;;;;;;;5058821;28;20487;-95
2022/06/29 06:03:11;;;;;;;5.77;5.30;;;22.70;99.90;;;;;;5059924;28;20434;-96
2022/06/29 06:05:38;;;;;;;6.00;5.40;;;;;;;;;;5056698;28;20435;-94
2022/06/29 06:08:06;;;;;;;7.23;5.70;;;;;;;;;;5066460;28;20538;-93
2022/06/29 06:10:33;;;;;;;5.23;4.80;;;;;;;;;;5067703;28;20446;-92
2022/06/29 06:13:02;;;;;;;5.60;5.00;;;;;;;;;;5078137;23;20475;-94
2022/06/29 06:15:30;;;;;;;5.20;4.70;;;;;;;;;;5061259;28;20456;-94
2022/06/29 06:17:57;;;;;;;4.50;4.20;;;;;;;;;;5075802;22;20470;-96
2022/06/29 06:20:28;;;;;;;4.90;4.50;;;;;;;;;;5064281;28;21024;-96
2022/06/29 06:22:55;;;;;;;5.07;4.67;;;;;;;;;;5060408;28;20453;-94
2022/06/29 06:25:25;;;;;;;6.10;5.50;;;;;;;;;;5059498;28;20453;-95
2022/06/29 06:27:53;;;;;;;8.03;5.00;;;;;;;;;;5057847;28;20803;-93
2022/06/29 06:30:20;;;;;;;5.60;5.10;;;;;;;;;;5059475;28;20439;-94
2022/06/29 06:32:47;;;;;;;11.60;4.60;;;;;;;;;;5058226;28;20502;-95
2022/06/29 06:35:22;;;;;;;6.50;5.70;;;;;;;;;;5057142;28;20478;-96
2022/06/29 06:37:52;;;;;;;8.30;5.30;;;;;;;;;;5036745;28;20458;-95
2022/06/29 06:43:07;;;;;;;5.67;5.17;;;;;;;;;;5038994;28;20482;-95
2022/06/29 06:45:35;;;;;;;5.30;4.80;;;;;;;;;;5037081;28;20455;-94
2022/06/29 06:48:02;;;;;;;5.20;4.80;;;;;;;;;;5039683;28;20454;-94
2022/06/29 06:50:29;;;;;;;5.10;4.60;;;;;;;;;;5041316;28;20444;-93
2022/06/29 06:52:58;;;;;;;5.37;4.90;;;;;;;;;;5051274;28;20439;-95
2022/06/29 06:55:25;;;;;;;8.80;4.87;;;;;;;;;;5050611;28;20570;-96
2022/06/29 06:57:52;;;;;;;5.53;5.03;;;;;;;;;;5036129;28;20440;-91
2022/06/29 07:00:19;;;;;;;4.67;4.27;;;;;;;;;;5035448;28;20454;-94
2022/06/29 07:02:46;;;;;;;7.47;4.40;;;;;;;;;;5031566;28;20998;-94
2022/06/29 07:05:14;;;;;;;5.60;5.20;;;;;;;;;;5036622;28;20458;-94
2022/06/29 07:07:41;;;;;;;5.67;4.83;;;;;;;;;;5035525;28;20562;-93
2022/06/29 07:10:10;;;;;;;5.70;5.30;;;25.00;99.90;;;;;;5037058;28;20447;-93
2022/06/29 07:12:37;;;;;;;5.20;4.80;;;;;;;;;;5031389;28;20435;-93
2022/06/29 07:15:04;;;;;;;5.00;4.53;;;;;;;;;;5034579;28;20444;-91
2022/06/29 07:17:32;;;;;;;4.40;4.10;;;;;;;;;;5034975;28;20448;-93
2022/06/29 07:19:59;;;;;;;5.03;4.63;;;;;;;;;;5035971;28;20473;-91
2022/06/29 07:22:26;;;;;;;4.77;4.30;;;;;;;;;;5030463;28;20490;-91
2022/06/29 07:24:53;;;;;;;5.33;4.83;;;;;;;;;;5032959;28;20451;-88
2022/06/29 07:27:22;;;;;;;5.30;4.80;;;;;;;;;;5036855;28;20447;-89
2022/06/29 07:29:52;;;;;;;5.97;4.70;;;;;;;;;;5031868;28;20412;-90
2022/06/29 07:32:19;;;;;;;4.00;3.70;;;;;;;;;;5033425;28;20478;-89
2022/06/29 07:34:46;;;;;;;5.10;4.70;;;;;;;;;;5033142;28;20505;-91
2022/06/29 07:37:14;;;;;;;5.30;4.57;;;;;;;;;;5033463;28;20467;-88
2022/06/29 07:39:41;;;;;;;4.83;4.37;;;;;;;;;;5033589;28;20447;-90
2022/06/29 07:42:08;;;;;;;3.93;3.63;;;;;;;;;;5033702;28;20502;-87
2022/06/29 07:44:36;;;;;;;4.60;4.20;;;26.30;98.00;;;;;;5029773;28;20451;-90
2022/06/29 07:47:03;;;;;;;3.90;3.60;;;;;;;;;;5032468;28;20805;-89
2022/06/29 07:49:31;;;;;;;3.90;3.70;;;;;;;;;;5029829;28;20466;-90
2022/06/29 07:51:58;;;;;;;3.70;3.40;;;;;;;;;;5026970;28;20448;-89
2022/06/29 07:54:25;;;;;;;3.60;3.30;;;;;;;;;;5016497;28;20452;-89
2022/06/29 07:56:52;;;;;;;3.70;3.50;;;;;;;;;;5036828;28;20523;-90
2022/06/29 07:59:19;;;;;;;3.60;3.30;;;;;;;;;;5027208;28;20455;-89
2022/06/29 08:01:47;;;;;;;5.33;3.13;;;26.70;95.70;;;;;;5019489;28;20487;-92
2022/06/29 08:04:14;;;;;;;3.90;3.60;;;;;;;;;;5037140;28;20447;-91
2022/06/29 08:06:41;;;;;;;4.17;3.87;;;;;;;;;;5038209;28;20458;-91
2022/06/29 08:09:09;;;;;;;4.20;3.80;;;;;;;;;;5025081;28;20451;-90
2022/06/29 08:11:36;;;;;;;4.00;3.70;;;;;;;;;;5037177;28;20456;-90
2022/06/29 08:14:03;;;;;;;4.00;3.70;;;;;;;;;;5038047;28;20930;-89
2022/06/29 08:16:30;;;;;;;4.23;3.83;;;;;;;;;;5036262;28;20816;-88
2022/06/29 08:18:59;;;;;;;6.90;4.40;;;;;;;;;;5037340;28;20475;-89
2022/06/29 08:21:29;;;;;;;4.90;4.43;;;;;;;;;;5037336;28;21024;-87
2022/06/29 08:23:56;;;;;;;4.70;4.40;;;;;;;;;;5025792;28;20483;-87
2022/06/29 08:26:23;;;;;;;4.03;3.73;;;;;;;;;;4996868;28;20468;-87
2022/06/29 08:28:51;;;;;;;4.77;4.37;;;;;;;;;;4998102;28;20525;-88
2022/06/29 08:31:18;;;;;;;4.97;4.47;;;;;;;;;;4996800;28;20464;-88
2022/06/29 08:33:45;;;;;;;4.77;4.33;;;;;;;;;;4994560;28;20453;-88
2022/06/29 08:36:14;;;;;;;4.00;3.70;;;;;;;;;;4996873;28;20469;-87
2022/06/29 08:38:41;;;;;;;5.27;4.70;;;;;;;;;;4996039;28;20464;-88
2022/06/29 08:41:08;;;;;;;4.23;3.90;;;;;;;;;;5000146;28;20457;-88
2022/06/29 08:43:36;;;;;;;5.80;4.20;;;;;;;;;;4996637;28;20901;-87
2022/06/29 08:46:03;;;;;;;5.27;4.70;;;;;;;;;;4996993;28;20827;-88
2022/06/29 08:48:30;;;;;;;4.70;4.23;;;;;;;;;;4997106;28;20917;-89
2022/06/29 08:50:57;;;;;;;4.53;4.23;;;;;;;;;;4996998;28;20548;-89
2022/06/29 08:53:26;;;;;;;4.73;4.33;;;;;;;;;;4998371;28;20449;-90
2022/06/29 08:55:55;;;;;;;4.60;4.20;;;;;;;;;;4997203;28;20457;-88
2022/06/29 08:58:24;;;;;;;4.17;3.87;;;24.50;99.90;;;;;;4979937;28;20457;-89
2022/06/29 09:00:51;;;;;;;4.40;4.10;;;;;;;;;;4996726;28;20449;-89
2022/06/29 09:03:19;;;;;;;4.83;4.43;;;;;;;;;;4996745;28;20496;-89
2022/06/29 09:05:48;;;;;;;4.50;4.20;;;;;;;;;;4997008;28;20481;-90
2022/06/29 09:08:15;;;;;;;5.73;5.20;;;;;;;;;;4995925;28;20549;-90
2022/06/29 09:10:44;;;;;;;4.90;4.50;;;;;;;;;;4999899;28;20460;-90
2022/06/29 09:13:11;;;;;;;4.90;4.50;;;;;;;;;;5002029;28;20941;-89
2022/06/29 09:15:39;;;;;;;4.90;4.50;;;25.70;99.90;;;;;;5002067;28;20454;-88
2022/06/29 09:18:24;;;;;;;7.10;4.50;;;26.00;99.90;;;;;;4998805;28;20477;-87
2022/06/29 09:20:54;;;;;;;5.10;4.70;;;27.00;99.90;;;;;;4998457;28;20441;-88
2022/06/29 09:23:22;;;;;;;5.57;5.17;;;;;;;;;;4996967;28;20489;-90
2022/06/29 09:25:50;;;;;;;89.20;46.07;;;;;;;;;;4996437;28;20457;-89
2022/06/29 09:28:23;;;;;;;4.80;4.50;;;28.60;94.60;;;;;;4996959;28;20456;-89
2022/06/29 09:30:52;;;;;;;5.30;4.80;;;;;;;;;;4995804;28;20511;-91
2022/06/29 09:33:21;;;;;;;4.87;4.57;;;29.10;95.20;;;;;;4996325;28;20465;-91
2022/06/29 09:38:48;;;;;;;5.00;4.60;;;;;;;;;;5000947;28;20446;-90
2022/06/29 09:41:17;;;;;;;4.20;3.90;;;;;;;;;;4995979;28;20449;-90
2022/06/29 09:43:45;;;;;;;5.00;4.60;;;29.10;93.00;;;;;;5008709;28;20451;-91
2022/06/29 09:46:13;;;;;;;5.20;4.70;;;;;;;;;;4989967;28;20454;-89
2022/06/29 09:48:40;;;;;;;7.90;4.63;;;;;;;;;;4978492;28;20441;-89
2022/06/29 09:53:53;;;;;;;5.33;4.87;;;26.70;98.30;;;;;;4976131;28;20450;-93
2022/06/29 09:56:22;;;;;;;4.90;4.50;;;26.30;99.90;;;;;;4981720;28;20465;-91
2022/06/29 09:58:50;;;;;;;6.23;4.20;;;26.40;98.10;;;;;;4978371;28;20968;-90
2022/06/29 10:04:02;;;;;;;6.33;5.43;;;;;;;;;;4985045;28;20458;-90
2022/06/29 10:06:30;;;;;;;6.70;5.37;;;;;;;;;;4979939;28;20450;-90
2022/06/29 10:09:03;;;;;;;5.37;4.97;;;26.30;99.90;;;;;;4980739;28;20458;-90
2022/06/29 10:14:36;;;;;;;5.40;4.90;;;26.20;99.90;;;;;;4956106;29;20446;-89
2022/06/29 10:17:13;;;;;;;5.40;4.90;;;25.90;99.90;;;;;;4954295;29;20447;-89
2022/06/29 10:19:50;;;;;;;5.10;4.70;;;26.20;99.90;;;;;;4954040;29;20489;-91
2022/06/29 10:22:18;;;;;;;5.63;5.13;;;;;;;;;;4953880;29;20852;-89
2022/06/29 10:25:04;;;;;;;5.40;5.00;;;26.00;99.70;;;;;;4949806;29;21132;-89
2022/06/29 10:27:33;;;;;;;5.23;4.83;;;;;;;;;;4954249;29;20461;-89
2022/06/29 10:30:19;;;;;;;7.40;4.87;;;26.10;99.90;;;;;;4969476;28;20465;-89
2022/06/29 10:32:47;;;;;;;5.97;4.90;;;;;;;;;;4980416;28;20446;-91
2022/06/29 10:35:19;;;;;;;5.90;4.87;;;;;;;;;;4977025;28;20542;-89
2022/06/29 10:37:51;;;;;;;5.00;4.47;;;26.50;97.20;;;;;;4994681;28;20440;-89
2022/06/29 10:40:21;;;;;;;5.80;5.30;;;26.40;99.90;;;;;;4993259;28;20446;-91
2022/06/29 10:45:39;;;;;;;5.30;4.90;;;;;;;;;;4980481;28;20429;-90
2022/06/29 10:48:31;;;;;;;9.90;8.93;;;25.50;99.90;;;;;;4980170;28;20460;-93
2022/06/29 10:50:59;;;;;;;5.67;5.17;;;;;;;;;;4982321;28;20505;-89
2022/06/29 10:53:26;;;;;;;5.57;5.10;;;;;;;;;;4980236;28;20450;-92
2022/06/29 10:55:56;;;;;;;5.27;4.80;;;25.80;99.90;;;;;;4982470;28;20450;-95
2022/06/29 11:00:57;;;;;;;7.23;4.57;;;;;;;;;;5026539;23;20488;-94
2022/06/29 11:12:05;;;;;;;111.03;71.63;;;;;;;;;;5050447;28;20438;-96
2022/06/29 11:17:42;;;;;;;138.77;82.40;;;;;;;;;;5044487;23;20510;-95
2022/06/29 11:20:30;;;;;;;4.93;4.40;;;;;;;;;;5025679;28;20551;-95
2022/06/29 11:23:07;;;;;;;5.40;4.87;;;;;;;;;;5027108;28;20928;-96
2022/06/29 11:28:38;;;;;;;4.87;4.40;;;;;;;;;;5046489;28;20510;-96
2022/06/29 11:31:12;;;;;;;5.07;4.23;;;25.10;99.90;;;;;;5044356;23;20488;-95
2022/06/29 11:34:01;;;;;;;4.67;4.27;;;;;;;;;;4945891;29;20531;-95
2022/06/29 11:36:32;;;;;;;4.47;4.17;;;;;;;;;;4945145;29;20447;-93
2022/06/29 11:39:06;;;;;;;4.33;3.93;;;;;;;;;;4939539;29;20456;-96
2022/06/29 11:44:24;;;;;;;5.67;3.80;;;;;;;;;;4938887;29;20668;-96
2022/06/29 11:46:56;;;;;;;7.87;4.57;;;;;;;;;;4928810;29;20496;-95
2022/06/29 11:49:36;;;;;;;5.83;4.40;;;;;;;;;;4924110;29;20472;-96
2022/06/29 11:52:10;;;;;;;4.10;3.70;;;;;;;;;;4928677;29;20444;-96
2022/06/29 11:54:39;;;;;;;5.20;3.60;;;;;;;;;;4931189;29;20488;-96
2022/06/29 11:57:07;;;;;;;8.17;4.73;;;;;;;;;;4925062;28;20464;-96
2022/06/29 11:59:34;;;;;;;3.73;3.43;;;;;;;;;;4981268;28;20493;-95
2022/06/29 12:02:02;;;;;;;3.70;3.40;;;;;;;;;;4982810;28;20458;-96
2022/06/29 12:04:32;;;;;;;3.67;3.37;;;;;;;;;;4986228;28;20438;-96
2022/06/29 12:07:17;;;;;;;4.57;3.50;;;;;;;;;;4996136;28;20466;-96
2022/06/29 12:09:45;;;;;;;5.63;4.23;;;;;;;;;;4985951;28;20450;-95
2022/06/29 12:12:14;;;;;;;3.50;3.20;;;;;;;;;;4985356;28;20457;-96
2022/06/29 12:14:43;;;;;;;4.13;3.73;;;;;;;;;;4979645;28;20826;-96
2022/06/29 12:17:17;;;;;;;5.43;3.80;;;;;;;;;;4981239;28;20477;-95
2022/06/29 12:19:45;;;;;;;4.47;3.87;;;;;;;;;;4979534;28;20450;-96
2022/06/29 12:22:15;;;;;;;5.90;5.00;;;;;;;;;;4987394;28;20472;-96
2022/06/29 12:24:43;;;;;;;4.43;3.67;;;;;;;;;;4999259;28;20480;-96
2022/06/29 12:27:14;;;;;;;14.50;12.00;;;;;;;;;;5007960;28;20441;-96
2022/06/29 12:29:41;;;;;;;5.63;4.70;;;;;;;;;;5007316;28;20450;-96
2022/06/29 12:32:11;;;;;;;3.83;3.53;;;;;;;;;;5002059;28;20528;-95
2022/06/29 12:34:40;;;;;;;5.17;3.90;;;;;;;;;;5000460;28;20477;-95
2022/06/29 12:37:08;;;;;;;5.00;3.73;;;;;;;;;;5000536;28;20468;-95
2022/06/29 12:39:41;;;;;;;4.10;3.70;;;;;;;;;;5001820;28;20449;-95
2022/06/29 12:42:12;;;;;;;3.40;3.10;;;;;;;;;;5003891;28;20460;-95
2022/06/29 12:44:39;;;;;;;6.27;3.73;;;;;;;;;;4999895;28;20848;-96
2022/06/29 12:47:09;;;;;;;4.53;4.00;;;;;;;;;;4968004;28;20548;-96
2022/06/29 12:49:36;;;;;;;7.60;4.10;;;;;;;;;;5006055;28;20513;-95
2022/06/29 12:52:06;;;;;;;7.50;6.77;;;;;;;;;;5006271;28;20524;-96
2022/06/29 12:54:34;;;;;;;3.90;3.60;;;;;;;;;;5000955;28;20489;-95
2022/06/29 12:57:22;;;;;;;4.20;3.73;;;;;;;;;;5006504;28;20476;-96
2022/06/29 13:18:33;;;;;;;4.03;3.73;;;;;;;;;;5154737;27;20562;-94
2022/06/29 13:23:45;;;;;;;7.10;5.17;;;;;;;;;;5043193;28;20441;-94
2022/06/29 13:32:30;;;;;;;6.37;4.53;;;;;;;;;;5133568;23;20485;-92
2022/06/29 13:34:59;;;;;;;4.00;3.70;;;;;;;;;;5094043;23;20555;-91
2022/06/29 13:37:43;;;;;;;4.97;4.50;;;;;;;;;;5088390;28;20497;-95
2022/06/29 13:43:17;;;;;;;6.00;4.63;;;25.30;97.10;;;;;;5721425;23;20493;-93
2022/06/29 13:45:44;;;;;;;4.30;4.00;;;;;;;;;;4990749;28;20859;-90
2022/06/29 13:48:12;;;;;;;5.50;5.00;;;;;;;;;;4992242;28;20452;-92
2022/06/29 13:50:58;;;;;;;5.00;4.50;;;;;;;;;;5005232;28;20464;-93
2022/06/29 13:56:24;;;;;;;7.40;6.23;;;;;;;;;;5086824;23;20488;-92
2022/06/29 13:58:53;;;;;;;4.20;3.80;;;;;;;;;;5098506;28;20453;-94
2022/06/29 14:01:26;;;;;;;4.90;4.50;;;;;;;;;;5097546;28;20461;-93
2022/06/29 14:06:41;;;;;;;5.73;4.90;;;;;;;;;;5105661;28;20439;-93
2022/06/29 14:09:13;;;;;;;4.47;4.17;;;;;;;;;;5098000;28;20445;-94
2022/06/29 14:11:45;;;;;;;8.40;4.80;;;;;;;;;;5100170;28;20524;-94
2022/06/29 14:14:13;;;;;;;5.43;4.40;;;;;;;;;;5095115;28;20461;-94
2022/06/29 14:16:40;;;;;;;13.63;5.10;;;;;;;;;;5099942;28;20523;-95
2022/06/29 14:19:08;;;;;;;4.73;4.30;;;;;;;;;;5100238;28;20484;-94
2022/06/29 14:21:36;;;;;;;6.23;4.93;;;;;;;;;;5128020;28;20504;-91
2022/06/29 14:24:15;;;;;;;6.87;4.67;;;;;;;;;;5121563;28;20460;-93
2022/06/29 14:26:48;;;;;;;6.57;5.37;;;;;;;;;;5104159;28;20447;-93
2022/06/29 14:29:20;;;;;;;6.37;4.97;;;;;;;;;;5141820;23;20528;-94
2022/06/29 14:31:50;;;;;;;5.03;4.53;;;;;;;;;;5084670;28;20464;-93
2022/06/29 14:34:18;;;;;;;4.20;3.90;;;;;;;;;;5088592;28;20454;-92
2022/06/29 14:36:45;;;;;;;5.07;4.50;;;;;;;;;;5077591;28;20485;-93
2022/06/29 14:39:12;;;;;;;5.87;5.10;;;;;;;;;;5077609;28;20922;-92
2022/06/29 14:41:39;;;;;;;4.20;3.90;;;;;;;;;;5078641;28;20805;-90
2022/06/29 14:44:14;;;;;;;5.40;4.60;;;;;;;;;;5078161;28;20445;-93
2022/06/29 14:46:44;;;;;;;4.73;4.30;;;;;;;;;;5077823;28;20453;-93
2022/06/29 14:49:11;;;;;;;4.43;4.03;;;;;;;;;;5077724;28;20457;-93
2022/06/29 14:51:39;;;;;;;4.93;4.50;;;;;;;;;;5080167;28;20453;-94
2022/06/29 14:54:08;;;;;;;7.77;4.27;;;;;;;;;;5078914;28;20450;-92
2022/06/29 14:56:35;;;;;;;4.63;4.23;;;;;;;;;;5078524;28;20496;-94
2022/06/29 14:59:03;;;;;;;6.00;5.40;;;;;;;;;;5076898;28;20457;-95
2022/06/29 15:01:32;;;;;;;6.23;5.60;;;;;;;;;;5078942;28;20450;-94
2022/06/29 15:04:00;;;;;;;4.40;4.00;;;;;;;;;;5079885;28;20450;-93
2022/06/29 15:06:31;;;;;;;5.00;4.60;;;;;;;;;;5077846;28;20552;-94
2022/06/29 15:08:59;;;;;;;10.10;6.50;;;;;;;;;;5077887;28;20535;-94
2022/06/29 15:11:28;;;;;;;8.43;4.50;;;;;;;;;;5079720;28;20553;-92
2022/06/29 15:13:55;;;;;;;4.93;4.53;;;;;;;;;;5077951;28;20507;-94
2022/06/29 15:16:22;;;;;;;5.07;4.57;;;;;;;;;;5078595;28;20438;-92
2022/06/29 15:18:51;;;;;;;6.50;4.90;;;;;;;;;;5079669;28;20465;-94
2022/06/29 15:21:18;;;;;;;5.43;4.93;;;;;;;;;;5075662;28;20491;-87
2022/06/29 15:23:46;;;;;;;5.17;4.77;;;;;;;;;;5078403;28;20450;-94
2022/06/29 15:26:14;;;;;;;5.43;4.93;;;;;;;;;;5083643;28;20453;-94
2022/06/29 15:28:41;;;;;;;6.70;5.77;;;;;;;;;;5080470;28;20481;-94
2022/06/29 15:31:08;;;;;;;7.23;5.30;;;;;;;;;;5090146;22;20468;-94
2022/06/29 15:39:06;;;;;;;7.63;4.87;;;;;;;;;;5075560;28;20460;-93
2022/06/29 15:41:34;;;;;;;5.70;5.20;;;;;;;;;;5076874;28;20459;-93
2022/06/29 15:44:01;;;;;;;5.17;4.70;;;;;;;;;;5072799;28;20437;-96
2022/06/29 15:46:29;;;;;;;5.30;4.90;;;;;;;;;;5076562;28;20925;-92
2022/06/29 15:48:56;;;;;;;5.67;5.27;;;;;;;;;;5076942;28;20463;-92
2022/06/29 15:51:24;;;;;;;6.03;4.97;;;;;;;;;;5076149;28;20439;-95
2022/06/29 15:56:36;;;;;;;5.83;4.97;;;;;;;;;;5076631;28;20428;-94
2022/06/29 15:59:03;;;;;;;6.40;4.80;;;;;;;;;;5069513;28;20437;-93
2022/06/29 16:01:30;;;;;;;4.80;4.40;;;;;;;;;;5076724;28;20442;-93
2022/06/29 16:03:59;;;;;;;5.47;5.07;;;;;;;;;;5072159;28;20460;-94
2022/06/29 16:06:28;;;;;;;5.13;4.67;;;;;;;;;;5072072;28;20449;-95
2022/06/29 16:08:56;;;;;;;5.27;4.87;;;;;;;;;;5076094;28;20441;-94
2022/06/29 16:11:23;;;;;;;6.00;5.50;;;;;;;;;;5077468;28;20521;-92
2022/06/29 16:13:50;;;;;;;7.90;4.90;;;;;;;;;;5073933;28;20450;-93
2022/06/29 16:16:17;;;;;;;5.23;4.83;;;;;;;;;;5071421;28;20465;-90
2022/06/29 16:18:44;;;;;;;5.80;5.20;;;;;;;;;;5076575;28;20494;-93
2022/06/29 16:21:11;;;;;;;5.60;5.10;;;;;;;;;;5077129;28;20454;-93
2022/06/29 16:23:41;;;;;;;6.37;5.70;;;;;;;;;;5091022;28;20441;-94
2022/06/29 16:26:09;;;;;;;5.83;4.93;;;;;;;;;;5097071;28;20440;-91
2022/06/29 16:28:36;;;;;;;6.07;5.40;;;;;;;;;;5096456;28;20519;-92
2022/06/29 16:31:03;;;;;;;5.43;4.90;;;;;;;;;;5092693;28;20441;-94
2022/06/29 16:33:30;;;;;;;5.17;4.67;;;;;;;;;;5113799;28;20447;-94
2022/06/29 16:35:57;;;;;;;6.13;5.33;;;;;;;;;;5117969;28;20448;-94